sensor_id;sensor_type;location;lat;lon;timestamp;P1;durP1;ratioP1;P2;durP2;ratioP2
3627;SDS011;1830;49.000;12.074;2023-04-10T00:01:50;33.77;;;21.43;;
3627;SDS011;1830;49.000;12.074;2023-04-10T00:04:17;30.83;;;21.50;;
3627;SDS011;1830;49.000;12.074;2023-04-10T00:06:43;36.77;;;22.30;;
3627;SDS011;1830;49.000;12.074;2023-04-10T00:09:12;32.10;;;22.53;;
3627;SDS011;1830;49.000;12.074;2023-04-10T00:11:39;34.47;;;24.30;;
3627;SDS011;1830;49.000;12.074;2023-04-10T00:14:08;29.40;;;21.60;;
3627;SDS011;1830;49.000;12.074;2023-04-10T00:16:35;29.67;;;21.97;;
3627;SDS011;1830;49.000;12.074;2023-04-10T00:19:01;30.03;;;21.77;;
3627;SDS011;1830;49.000;12.074;2023-04-10T00:21:28;32.87;;;22.40;;
3627;SDS011;1830;49.000;12.074;2023-04-10T00:23:56;32.30;;;22.13;;
3627;SDS011;1830;49.000;12.074;2023-04-10T00:26:23;30.27;;;20.97;;
3627;SDS011;1830;49.000;12.074;2023-04-10T00:28:50;28.60;;;20.33;;
3627;SDS011;1830;49.000;12.074;2023-04-10T00:31:19;27.60;;;19.63;;
3627;SDS011;1830;49.000;12.074;2023-04-10T00:33:46;30.23;;;22.03;;
3627;SDS011;1830;49.000;12.074;2023-04-10T00:36:13;30.30;;;21.97;;
3627;SDS011;1830;49.000;12.074;2023-04-10T00:38:40;34.17;;;21.43;;
3627;SDS011;1830;49.000;12.074;2023-04-10T00:41:07;31.17;;;21.93;;
3627;SDS011;1830;49.000;12.074;2023-04-10T00:43:34;27.37;;;20.70;;
3627;SDS011;1830;49.000;12.074;2023-04-10T00:46:01;28.03;;;19.80;;
3627;SDS011;1830;49.000;12.074;2023-04-10T00:48:31;29.77;;;21.50;;
3627;SDS011;1830;49.000;12.074;2023-04-10T00:50:58;35.63;;;19.97;;
3627;SDS011;1830;49.000;12.074;2023-04-10T00:53:26;30.20;;;20.23;;
3627;SDS011;1830;49.000;12.074;2023-04-10T00:55:53;27.90;;;18.87;;
3627;SDS011;1830;49.000;12.074;2023-04-10T00:58:21;28.77;;;19.63;;
3627;SDS011;1830;49.000;12.074;2023-04-10T01:00:50;27.03;;;19.57;;
3627;SDS011;1830;49.000;12.074;2023-04-10T01:03:17;28.60;;;20.07;;
3627;SDS011;1830;49.000;12.074;2023-04-10T01:05:50;29.03;;;20.43;;
3627;SDS011;1830;49.000;12.074;2023-04-10T01:08:29;29.93;;;19.80;;
3627;SDS011;1830;49.000;12.074;2023-04-10T01:11:04;27.20;;;20.23;;
3627;SDS011;1830;49.000;12.074;2023-04-10T01:13:38;26.07;;;18.77;;
3627;SDS011;1830;49.000;12.074;2023-04-10T01:16:15;30.83;;;20.70;;
3627;SDS011;1830;49.000;12.074;2023-04-10T01:18:47;29.80;;;19.27;;
3627;SDS011;1830;49.000;12.074;2023-04-10T01:21:18;29.13;;;20.50;;
3627;SDS011;1830;49.000;12.074;2023-04-10T01:24:05;33.47;;;19.57;;
3627;SDS011;1830;49.000;12.074;2023-04-10T01:26:44;29.27;;;20.57;;
3627;SDS011;1830;49.000;12.074;2023-04-10T01:29:26;29.00;;;19.33;;
3627;SDS011;1830;49.000;12.074;2023-04-10T01:31:57;26.73;;;19.67;;
3627;SDS011;1830;49.000;12.074;2023-04-10T01:34:28;27.87;;;19.20;;
3627;SDS011;1830;49.000;12.074;2023-04-10T01:37:01;27.63;;;18.50;;
3627;SDS011;1830;49.000;12.074;2023-04-10T01:39:30;26.63;;;18.93;;
3627;SDS011;1830;49.000;12.074;2023-04-10T01:42:01;29.07;;;18.90;;
3627;SDS011;1830;49.000;12.074;2023-04-10T01:44:32;25.83;;;19.40;;
3627;SDS011;1830;49.000;12.074;2023-04-10T01:47:01;24.57;;;18.73;;
3627;SDS011;1830;49.000;12.074;2023-04-10T01:49:32;28.90;;;20.67;;
3627;SDS011;1830;49.000;12.074;2023-04-10T01:52:01;26.50;;;19.60;;
3627;SDS011;1830;49.000;12.074;2023-04-10T01:54:31;26.50;;;20.10;;
3627;SDS011;1830;49.000;12.074;2023-04-10T01:56:59;30.40;;;20.33;;
3627;SDS011;1830;49.000;12.074;2023-04-10T01:59:28;24.57;;;18.47;;
3627;SDS011;1830;49.000;12.074;2023-04-10T02:01:57;26.77;;;18.90;;
3627;SDS011;1830;49.000;12.074;2023-04-10T02:04:24;25.63;;;20.10;;
3627;SDS011;1830;49.000;12.074;2023-04-10T02:06:56;27.77;;;20.10;;
3627;SDS011;1830;49.000;12.074;2023-04-10T02:09:30;29.40;;;20.67;;
3627;SDS011;1830;49.000;12.074;2023-04-10T02:12:03;26.40;;;18.47;;
3627;SDS011;1830;49.000;12.074;2023-04-10T02:14:33;31.00;;;20.57;;
3627;SDS011;1830;49.000;12.074;2023-04-10T02:17:05;25.13;;;18.33;;
3627;SDS011;1830;49.000;12.074;2023-04-10T02:19:34;27.17;;;19.93;;
3627;SDS011;1830;49.000;12.074;2023-04-10T02:22:03;27.50;;;19.80;;
3627;SDS011;1830;49.000;12.074;2023-04-10T02:24:31;27.43;;;19.83;;
3627;SDS011;1830;49.000;12.074;2023-04-10T02:27:00;26.10;;;19.30;;
3627;SDS011;1830;49.000;12.074;2023-04-10T02:29:27;26.60;;;19.70;;
3627;SDS011;1830;49.000;12.074;2023-04-10T02:31:54;26.00;;;19.60;;
3627;SDS011;1830;49.000;12.074;2023-04-10T02:34:22;30.77;;;21.17;;
3627;SDS011;1830;49.000;12.074;2023-04-10T02:36:49;25.90;;;18.70;;
3627;SDS011;1830;49.000;12.074;2023-04-10T02:39:16;28.30;;;19.60;;
3627;SDS011;1830;49.000;12.074;2023-04-10T02:41:43;26.27;;;19.23;;
3627;SDS011;1830;49.000;12.074;2023-04-10T02:44:11;26.97;;;19.07;;
3627;SDS011;1830;49.000;12.074;2023-04-10T02:46:38;29.53;;;20.90;;
3627;SDS011;1830;49.000;12.074;2023-04-10T02:49:05;28.43;;;20.30;;
3627;SDS011;1830;49.000;12.074;2023-04-10T02:51:34;28.00;;;21.00;;
3627;SDS011;1830;49.000;12.074;2023-04-10T02:54:01;30.10;;;19.40;;
3627;SDS011;1830;49.000;12.074;2023-04-10T02:56:28;27.77;;;19.50;;
3627;SDS011;1830;49.000;12.074;2023-04-10T02:58:55;26.77;;;20.07;;
3627;SDS011;1830;49.000;12.074;2023-04-10T03:01:22;28.60;;;20.67;;
3627;SDS011;1830;49.000;12.074;2023-04-10T03:03:48;29.20;;;20.03;;
3627;SDS011;1830;49.000;12.074;2023-04-10T03:06:15;25.30;;;18.80;;
3627;SDS011;1830;49.000;12.074;2023-04-10T03:08:44;29.23;;;19.13;;
3627;SDS011;1830;49.000;12.074;2023-04-10T03:11:10;29.40;;;20.03;;
3627;SDS011;1830;49.000;12.074;2023-04-10T03:13:37;29.10;;;20.27;;
3627;SDS011;1830;49.000;12.074;2023-04-10T03:16:05;30.97;;;19.90;;
3627;SDS011;1830;49.000;12.074;2023-04-10T03:18:32;29.40;;;18.87;;
3627;SDS011;1830;49.000;12.074;2023-04-10T03:20:59;27.57;;;19.03;;
3627;SDS011;1830;49.000;12.074;2023-04-10T03:23:27;27.63;;;19.77;;
3627;SDS011;1830;49.000;12.074;2023-04-10T03:25:55;35.50;;;20.50;;
3627;SDS011;1830;49.000;12.074;2023-04-10T03:28:22;31.63;;;20.23;;
3627;SDS011;1830;49.000;12.074;2023-04-10T03:30:49;33.97;;;20.07;;
3627;SDS011;1830;49.000;12.074;2023-04-10T03:33:16;31.40;;;20.03;;
3627;SDS011;1830;49.000;12.074;2023-04-10T03:35:44;30.50;;;20.10;;
3627;SDS011;1830;49.000;12.074;2023-04-10T03:38:11;24.80;;;18.40;;
3627;SDS011;1830;49.000;12.074;2023-04-10T03:40:39;26.70;;;19.50;;
3627;SDS011;1830;49.000;12.074;2023-04-10T03:43:07;33.80;;;21.40;;
3627;SDS011;1830;49.000;12.074;2023-04-10T03:45:34;32.27;;;20.73;;
3627;SDS011;1830;49.000;12.074;2023-04-10T03:48:01;34.30;;;20.93;;
3627;SDS011;1830;49.000;12.074;2023-04-10T03:50:28;32.27;;;22.00;;
3627;SDS011;1830;49.000;12.074;2023-04-10T03:52:55;28.20;;;19.90;;
3627;SDS011;1830;49.000;12.074;2023-04-10T03:55:22;30.60;;;20.03;;
3627;SDS011;1830;49.000;12.074;2023-04-10T03:57:49;35.03;;;21.30;;
3627;SDS011;1830;49.000;12.074;2023-04-10T04:00:18;27.77;;;19.90;;
3627;SDS011;1830;49.000;12.074;2023-04-10T04:02:46;29.33;;;20.30;;
3627;SDS011;1830;49.000;12.074;2023-04-10T04:05:14;27.87;;;20.60;;
3627;SDS011;1830;49.000;12.074;2023-04-10T04:07:41;31.60;;;21.47;;
3627;SDS011;1830;49.000;12.074;2023-04-10T04:10:08;31.47;;;20.70;;
3627;SDS011;1830;49.000;12.074;2023-04-10T04:12:35;30.10;;;20.87;;
3627;SDS011;1830;49.000;12.074;2023-04-10T04:15:02;27.93;;;18.57;;
3627;SDS011;1830;49.000;12.074;2023-04-10T04:17:31;28.50;;;20.40;;
3627;SDS011;1830;49.000;12.074;2023-04-10T04:19:58;32.07;;;21.10;;
3627;SDS011;1830;49.000;12.074;2023-04-10T04:22:25;31.57;;;20.47;;
3627;SDS011;1830;49.000;12.074;2023-04-10T04:24:52;29.80;;;20.60;;
3627;SDS011;1830;49.000;12.074;2023-04-10T04:27:21;29.30;;;20.00;;
3627;SDS011;1830;49.000;12.074;2023-04-10T04:29:48;28.40;;;19.43;;
3627;SDS011;1830;49.000;12.074;2023-04-10T04:32:15;28.60;;;20.57;;
3627;SDS011;1830;49.000;12.074;2023-04-10T04:34:43;29.10;;;19.80;;
3627;SDS011;1830;49.000;12.074;2023-04-10T04:37:10;30.13;;;20.27;;
3627;SDS011;1830;49.000;12.074;2023-04-10T04:39:37;29.20;;;20.10;;
3627;SDS011;1830;49.000;12.074;2023-04-10T04:42:04;36.40;;;22.47;;
3627;SDS011;1830;49.000;12.074;2023-04-10T04:44:33;36.00;;;23.10;;
3627;SDS011;1830;49.000;12.074;2023-04-10T04:47:00;32.90;;;21.70;;
3627;SDS011;1830;49.000;12.074;2023-04-10T04:49:27;28.80;;;19.30;;
3627;SDS011;1830;49.000;12.074;2023-04-10T04:51:55;30.37;;;19.60;;
3627;SDS011;1830;49.000;12.074;2023-04-10T04:54:22;27.70;;;19.67;;
3627;SDS011;1830;49.000;12.074;2023-04-10T04:56:49;28.17;;;20.27;;
3627;SDS011;1830;49.000;12.074;2023-04-10T04:59:16;28.87;;;19.13;;
3627;SDS011;1830;49.000;12.074;2023-04-10T05:01:43;33.00;;;20.73;;
3627;SDS011;1830;49.000;12.074;2023-04-10T05:04:10;27.93;;;18.93;;
3627;SDS011;1830;49.000;12.074;2023-04-10T05:06:37;31.30;;;20.30;;
3627;SDS011;1830;49.000;12.074;2023-04-10T05:09:05;29.00;;;20.20;;
3627;SDS011;1830;49.000;12.074;2023-04-10T05:11:32;33.20;;;20.10;;
3627;SDS011;1830;49.000;12.074;2023-04-10T05:13:59;28.30;;;20.53;;
3627;SDS011;1830;49.000;12.074;2023-04-10T05:16:26;25.47;;;18.47;;
3627;SDS011;1830;49.000;12.074;2023-04-10T05:18:53;25.17;;;18.60;;
3627;SDS011;1830;49.000;12.074;2023-04-10T05:21:20;27.60;;;19.23;;
3627;SDS011;1830;49.000;12.074;2023-04-10T05:23:47;26.87;;;19.03;;
3627;SDS011;1830;49.000;12.074;2023-04-10T05:26:15;28.50;;;19.93;;
3627;SDS011;1830;49.000;12.074;2023-04-10T05:28:42;28.20;;;18.37;;
3627;SDS011;1830;49.000;12.074;2023-04-10T05:31:09;26.97;;;19.43;;
3627;SDS011;1830;49.000;12.074;2023-04-10T05:33:36;29.13;;;20.63;;
3627;SDS011;1830;49.000;12.074;2023-04-10T05:36:03;40.67;;;28.40;;
3627;SDS011;1830;49.000;12.074;2023-04-10T05:38:30;33.77;;;23.40;;
3627;SDS011;1830;49.000;12.074;2023-04-10T05:40:56;32.83;;;22.40;;
3627;SDS011;1830;49.000;12.074;2023-04-10T05:43:25;30.60;;;21.20;;
3627;SDS011;1830;49.000;12.074;2023-04-10T05:45:51;33.70;;;21.50;;
3627;SDS011;1830;49.000;12.074;2023-04-10T05:48:18;31.33;;;21.87;;
3627;SDS011;1830;49.000;12.074;2023-04-10T05:50:45;28.33;;;20.27;;
3627;SDS011;1830;49.000;12.074;2023-04-10T05:53:12;35.07;;;21.50;;
3627;SDS011;1830;49.000;12.074;2023-04-10T05:55:40;33.70;;;21.30;;
3627;SDS011;1830;49.000;12.074;2023-04-10T05:58:06;29.17;;;20.40;;
3627;SDS011;1830;49.000;12.074;2023-04-10T06:00:34;31.83;;;21.70;;
3627;SDS011;1830;49.000;12.074;2023-04-10T06:03:01;31.03;;;22.53;;
3627;SDS011;1830;49.000;12.074;2023-04-10T06:05:28;28.87;;;21.40;;
3627;SDS011;1830;49.000;12.074;2023-04-10T06:07:55;31.03;;;20.50;;
3627;SDS011;1830;49.000;12.074;2023-04-10T06:10:22;30.83;;;22.20;;
3627;SDS011;1830;49.000;12.074;2023-04-10T06:12:48;33.57;;;22.80;;
3627;SDS011;1830;49.000;12.074;2023-04-10T06:15:15;33.87;;;24.07;;
3627;SDS011;1830;49.000;12.074;2023-04-10T06:17:43;35.63;;;24.47;;
3627;SDS011;1830;49.000;12.074;2023-04-10T06:20:10;33.53;;;22.30;;
3627;SDS011;1830;49.000;12.074;2023-04-10T06:22:37;38.00;;;25.97;;
3627;SDS011;1830;49.000;12.074;2023-04-10T06:25:04;38.13;;;24.50;;
3627;SDS011;1830;49.000;12.074;2023-04-10T06:27:32;37.97;;;25.17;;
3627;SDS011;1830;49.000;12.074;2023-04-10T06:29:59;39.60;;;26.80;;
3627;SDS011;1830;49.000;12.074;2023-04-10T06:32:26;37.80;;;25.67;;
3627;SDS011;1830;49.000;12.074;2023-04-10T06:34:54;44.40;;;28.53;;
3627;SDS011;1830;49.000;12.074;2023-04-10T06:37:25;37.50;;;25.60;;
3627;SDS011;1830;49.000;12.074;2023-04-10T06:39:58;37.60;;;25.57;;
3627;SDS011;1830;49.000;12.074;2023-04-10T06:42:27;42.53;;;28.23;;
3627;SDS011;1830;49.000;12.074;2023-04-10T06:44:54;38.17;;;25.83;;
3627;SDS011;1830;49.000;12.074;2023-04-10T06:47:20;37.30;;;26.30;;
3627;SDS011;1830;49.000;12.074;2023-04-10T06:49:47;39.23;;;25.20;;
3627;SDS011;1830;49.000;12.074;2023-04-10T06:52:15;35.90;;;24.17;;
3627;SDS011;1830;49.000;12.074;2023-04-10T06:54:42;36.07;;;25.30;;
3627;SDS011;1830;49.000;12.074;2023-04-10T06:57:09;48.90;;;25.13;;
3627;SDS011;1830;49.000;12.074;2023-04-10T06:59:36;41.73;;;28.50;;
3627;SDS011;1830;49.000;12.074;2023-04-10T07:02:03;40.27;;;25.43;;
3627;SDS011;1830;49.000;12.074;2023-04-10T07:04:30;38.00;;;25.30;;
3627;SDS011;1830;49.000;12.074;2023-04-10T07:06:57;37.60;;;24.87;;
3627;SDS011;1830;49.000;12.074;2023-04-10T07:09:29;34.37;;;24.97;;
3627;SDS011;1830;49.000;12.074;2023-04-10T07:11:56;37.67;;;25.80;;
3627;SDS011;1830;49.000;12.074;2023-04-10T07:14:22;40.27;;;27.00;;
3627;SDS011;1830;49.000;12.074;2023-04-10T07:16:49;38.63;;;24.43;;
3627;SDS011;1830;49.000;12.074;2023-04-10T07:19:18;38.50;;;27.47;;
3627;SDS011;1830;49.000;12.074;2023-04-10T07:21:44;39.73;;;27.93;;
3627;SDS011;1830;49.000;12.074;2023-04-10T07:24:14;44.00;;;29.73;;
3627;SDS011;1830;49.000;12.074;2023-04-10T07:26:42;40.47;;;27.37;;
3627;SDS011;1830;49.000;12.074;2023-04-10T07:29:09;39.00;;;26.90;;
3627;SDS011;1830;49.000;12.074;2023-04-10T07:31:36;38.70;;;26.70;;
3627;SDS011;1830;49.000;12.074;2023-04-10T07:34:03;41.73;;;28.57;;
3627;SDS011;1830;49.000;12.074;2023-04-10T07:36:30;43.37;;;29.50;;
3627;SDS011;1830;49.000;12.074;2023-04-10T07:38:57;41.70;;;27.30;;
3627;SDS011;1830;49.000;12.074;2023-04-10T07:41:24;41.40;;;28.17;;
3627;SDS011;1830;49.000;12.074;2023-04-10T07:43:52;39.43;;;29.10;;
3627;SDS011;1830;49.000;12.074;2023-04-10T07:46:19;40.50;;;28.27;;
3627;SDS011;1830;49.000;12.074;2023-04-10T07:48:45;42.30;;;28.30;;
3627;SDS011;1830;49.000;12.074;2023-04-10T07:51:13;39.07;;;28.17;;
3627;SDS011;1830;49.000;12.074;2023-04-10T07:53:40;43.60;;;27.63;;
3627;SDS011;1830;49.000;12.074;2023-04-10T07:56:13;42.30;;;28.90;;
3627;SDS011;1830;49.000;12.074;2023-04-10T07:58:41;41.13;;;28.97;;
3627;SDS011;1830;49.000;12.074;2023-04-10T08:01:09;40.90;;;28.40;;
3627;SDS011;1830;49.000;12.074;2023-04-10T08:03:38;43.20;;;28.60;;
3627;SDS011;1830;49.000;12.074;2023-04-10T08:06:06;38.77;;;26.43;;
3627;SDS011;1830;49.000;12.074;2023-04-10T08:08:34;37.03;;;26.73;;
3627;SDS011;1830;49.000;12.074;2023-04-10T08:11:01;37.70;;;26.13;;
3627;SDS011;1830;49.000;12.074;2023-04-10T08:13:28;38.63;;;26.27;;
3627;SDS011;1830;49.000;12.074;2023-04-10T08:15:55;39.67;;;27.30;;
3627;SDS011;1830;49.000;12.074;2023-04-10T08:18:23;37.90;;;25.87;;
3627;SDS011;1830;49.000;12.074;2023-04-10T08:20:50;39.43;;;26.53;;
3627;SDS011;1830;49.000;12.074;2023-04-10T08:23:17;35.00;;;25.53;;
3627;SDS011;1830;49.000;12.074;2023-04-10T08:25:43;40.60;;;28.30;;
3627;SDS011;1830;49.000;12.074;2023-04-10T08:28:10;38.30;;;26.73;;
3627;SDS011;1830;49.000;12.074;2023-04-10T08:30:37;36.47;;;26.97;;
3627;SDS011;1830;49.000;12.074;2023-04-10T08:33:04;36.13;;;25.07;;
3627;SDS011;1830;49.000;12.074;2023-04-10T08:35:32;32.23;;;23.73;;
3627;SDS011;1830;49.000;12.074;2023-04-10T08:37:59;35.70;;;24.43;;
3627;SDS011;1830;49.000;12.074;2023-04-10T08:40:26;31.50;;;23.10;;
3627;SDS011;1830;49.000;12.074;2023-04-10T08:42:52;34.27;;;24.73;;
3627;SDS011;1830;49.000;12.074;2023-04-10T08:45:19;28.87;;;21.13;;
3627;SDS011;1830;49.000;12.074;2023-04-10T08:47:47;30.60;;;23.20;;
3627;SDS011;1830;49.000;12.074;2023-04-10T08:50:16;30.43;;;22.70;;
3627;SDS011;1830;49.000;12.074;2023-04-10T08:52:46;30.20;;;21.60;;
3627;SDS011;1830;49.000;12.074;2023-04-10T08:55:17;32.93;;;22.97;;
3627;SDS011;1830;49.000;12.074;2023-04-10T08:57:45;33.57;;;24.10;;
3627;SDS011;1830;49.000;12.074;2023-04-10T09:00:13;32.40;;;22.60;;
3627;SDS011;1830;49.000;12.074;2023-04-10T09:02:40;31.67;;;22.90;;
3627;SDS011;1830;49.000;12.074;2023-04-10T09:05:09;33.70;;;24.80;;
3627;SDS011;1830;49.000;12.074;2023-04-10T09:07:37;29.63;;;23.07;;
3627;SDS011;1830;49.000;12.074;2023-04-10T09:10:06;34.30;;;23.93;;
3627;SDS011;1830;49.000;12.074;2023-04-10T09:12:43;33.73;;;23.90;;
3627;SDS011;1830;49.000;12.074;2023-04-10T09:15:11;33.10;;;23.07;;
3627;SDS011;1830;49.000;12.074;2023-04-10T09:17:43;30.00;;;18.93;;
3627;SDS011;1830;49.000;12.074;2023-04-10T09:20:20;32.50;;;23.50;;
3627;SDS011;1830;49.000;12.074;2023-04-10T09:22:48;28.03;;;21.53;;
3627;SDS011;1830;49.000;12.074;2023-04-10T09:25:30;28.83;;;21.37;;
3627;SDS011;1830;49.000;12.074;2023-04-10T09:27:59;29.50;;;21.00;;
3627;SDS011;1830;49.000;12.074;2023-04-10T09:30:34;29.90;;;22.60;;
3627;SDS011;1830;49.000;12.074;2023-04-10T09:33:02;25.83;;;19.30;;
3627;SDS011;1830;49.000;12.074;2023-04-10T09:35:35;24.20;;;19.07;;
3627;SDS011;1830;49.000;12.074;2023-04-10T09:38:13;18.60;;;14.83;;
3627;SDS011;1830;49.000;12.074;2023-04-10T09:40:42;19.40;;;15.70;;
3627;SDS011;1830;49.000;12.074;2023-04-10T09:43:19;23.30;;;16.30;;
3627;SDS011;1830;49.000;12.074;2023-04-10T09:45:48;20.53;;;16.27;;
3627;SDS011;1830;49.000;12.074;2023-04-10T09:48:16;21.70;;;16.50;;
3627;SDS011;1830;49.000;12.074;2023-04-10T09:50:44;22.57;;;16.33;;
3627;SDS011;1830;49.000;12.074;2023-04-10T09:53:11;15.27;;;12.67;;
3627;SDS011;1830;49.000;12.074;2023-04-10T09:55:39;22.20;;;15.87;;
3627;SDS011;1830;49.000;12.074;2023-04-10T09:58:09;24.97;;;17.67;;
3627;SDS011;1830;49.000;12.074;2023-04-10T10:00:38;20.90;;;16.57;;
3627;SDS011;1830;49.000;12.074;2023-04-10T10:03:07;19.27;;;15.60;;
3627;SDS011;1830;49.000;12.074;2023-04-10T10:05:36;19.70;;;15.83;;
3627;SDS011;1830;49.000;12.074;2023-04-10T10:08:05;19.97;;;16.03;;
3627;SDS011;1830;49.000;12.074;2023-04-10T10:10:33;21.23;;;16.80;;
3627;SDS011;1830;49.000;12.074;2023-04-10T10:13:06;20.23;;;16.33;;
3627;SDS011;1830;49.000;12.074;2023-04-10T10:15:37;22.27;;;16.23;;
3627;SDS011;1830;49.000;12.074;2023-04-10T10:18:12;23.87;;;15.80;;
3627;SDS011;1830;49.000;12.074;2023-04-10T10:20:45;22.53;;;16.50;;
3627;SDS011;1830;49.000;12.074;2023-04-10T10:23:13;23.60;;;17.63;;
3627;SDS011;1830;49.000;12.074;2023-04-10T10:25:42;20.00;;;16.20;;
3627;SDS011;1830;49.000;12.074;2023-04-10T10:28:12;19.87;;;14.83;;
3627;SDS011;1830;49.000;12.074;2023-04-10T10:30:39;20.27;;;15.40;;
3627;SDS011;1830;49.000;12.074;2023-04-10T10:33:07;22.13;;;15.50;;
3627;SDS011;1830;49.000;12.074;2023-04-10T10:35:35;18.77;;;15.97;;
3627;SDS011;1830;49.000;12.074;2023-04-10T10:38:03;21.57;;;16.70;;
3627;SDS011;1830;49.000;12.074;2023-04-10T10:40:30;23.47;;;16.70;;
3627;SDS011;1830;49.000;12.074;2023-04-10T10:43:03;24.07;;;16.30;;
3627;SDS011;1830;49.000;12.074;2023-04-10T10:45:41;21.53;;;15.50;;
3627;SDS011;1830;49.000;12.074;2023-04-10T10:48:15;16.90;;;13.50;;
3627;SDS011;1830;49.000;12.074;2023-04-10T10:50:52;26.93;;;15.37;;
3627;SDS011;1830;49.000;12.074;2023-04-10T10:53:30;19.90;;;15.80;;
3627;SDS011;1830;49.000;12.074;2023-04-10T10:59:01;15.97;;;13.27;;
3627;SDS011;1830;49.000;12.074;2023-04-10T11:01:29;23.90;;;17.73;;
3627;SDS011;1830;49.000;12.074;2023-04-10T11:03:56;19.83;;;15.67;;
3627;SDS011;1830;49.000;12.074;2023-04-10T11:12:14;20.10;;;15.37;;
3627;SDS011;1830;49.000;12.074;2023-04-10T11:14:42;19.03;;;15.30;;
3627;SDS011;1830;49.000;12.074;2023-04-10T11:17:11;16.30;;;13.50;;
3627;SDS011;1830;49.000;12.074;2023-04-10T11:19:57;21.20;;;15.90;;
3627;SDS011;1830;49.000;12.074;2023-04-10T11:22:25;19.03;;;15.17;;
3627;SDS011;1830;49.000;12.074;2023-04-10T11:24:53;20.40;;;16.90;;
3627;SDS011;1830;49.000;12.074;2023-04-10T11:30:27;19.33;;;14.10;;
3627;SDS011;1830;49.000;12.074;2023-04-10T11:32:57;18.83;;;14.87;;
3627;SDS011;1830;49.000;12.074;2023-04-10T11:35:25;17.90;;;14.07;;
3627;SDS011;1830;49.000;12.074;2023-04-10T11:38:08;17.30;;;13.07;;
3627;SDS011;1830;49.000;12.074;2023-04-10T11:40:37;14.50;;;12.53;;
3627;SDS011;1830;49.000;12.074;2023-04-10T11:43:22;15.67;;;13.37;;
3627;SDS011;1830;49.000;12.074;2023-04-10T11:45:49;16.80;;;14.43;;
3627;SDS011;1830;49.000;12.074;2023-04-10T11:48:17;14.77;;;12.53;;
3627;SDS011;1830;49.000;12.074;2023-04-10T11:50:44;14.77;;;13.03;;
3627;SDS011;1830;49.000;12.074;2023-04-10T11:53:17;16.60;;;13.37;;
3627;SDS011;1830;49.000;12.074;2023-04-10T11:55:45;12.40;;;10.67;;
3627;SDS011;1830;49.000;12.074;2023-04-10T11:58:25;14.73;;;11.53;;
3627;SDS011;1830;49.000;12.074;2023-04-10T12:00:57;15.33;;;12.57;;
3627;SDS011;1830;49.000;12.074;2023-04-10T12:03:33;15.30;;;12.60;;
3627;SDS011;1830;49.000;12.074;2023-04-10T12:06:01;14.00;;;11.97;;
3627;SDS011;1830;49.000;12.074;2023-04-10T12:08:31;14.70;;;12.30;;
3627;SDS011;1830;49.000;12.074;2023-04-10T12:10:58;17.00;;;13.00;;
3627;SDS011;1830;49.000;12.074;2023-04-10T12:13:26;13.90;;;11.53;;
3627;SDS011;1830;49.000;12.074;2023-04-10T12:15:56;11.20;;;9.90;;
3627;SDS011;1830;49.000;12.074;2023-04-10T12:18:25;13.90;;;11.33;;
3627;SDS011;1830;49.000;12.074;2023-04-10T12:20:54;13.77;;;11.83;;
3627;SDS011;1830;49.000;12.074;2023-04-10T12:23:21;13.80;;;11.70;;
3627;SDS011;1830;49.000;12.074;2023-04-10T12:25:48;14.33;;;11.80;;
3627;SDS011;1830;49.000;12.074;2023-04-10T12:28:16;18.53;;;14.27;;
3627;SDS011;1830;49.000;12.074;2023-04-10T12:30:47;13.00;;;11.50;;
3627;SDS011;1830;49.000;12.074;2023-04-10T12:33:21;13.10;;;11.40;;
3627;SDS011;1830;49.000;12.074;2023-04-10T12:35:48;13.40;;;12.00;;
3627;SDS011;1830;49.000;12.074;2023-04-10T12:38:16;13.80;;;11.47;;
3627;SDS011;1830;49.000;12.074;2023-04-10T12:41:00;14.03;;;11.73;;
3627;SDS011;1830;49.000;12.074;2023-04-10T12:43:31;11.90;;;10.70;;
3627;SDS011;1830;49.000;12.074;2023-04-10T12:45:59;12.73;;;10.30;;
3627;SDS011;1830;49.000;12.074;2023-04-10T12:48:26;16.47;;;12.43;;
3627;SDS011;1830;49.000;12.074;2023-04-10T12:50:53;13.47;;;10.87;;
3627;SDS011;1830;49.000;12.074;2023-04-10T12:53:21;12.97;;;11.50;;
3627;SDS011;1830;49.000;12.074;2023-04-10T12:55:55;12.80;;;10.87;;
3627;SDS011;1830;49.000;12.074;2023-04-10T12:58:23;13.43;;;11.40;;
3627;SDS011;1830;49.000;12.074;2023-04-10T13:00:52;12.17;;;10.60;;
3627;SDS011;1830;49.000;12.074;2023-04-10T13:03:19;12.43;;;10.57;;
3627;SDS011;1830;49.000;12.074;2023-04-10T13:05:46;11.47;;;9.90;;
3627;SDS011;1830;49.000;12.074;2023-04-10T13:08:13;11.40;;;9.60;;
3627;SDS011;1830;49.000;12.074;2023-04-10T13:10:41;10.30;;;9.30;;
3627;SDS011;1830;49.000;12.074;2023-04-10T13:13:08;11.97;;;10.77;;
3627;SDS011;1830;49.000;12.074;2023-04-10T13:15:37;13.50;;;11.30;;
3627;SDS011;1830;49.000;12.074;2023-04-10T13:18:05;11.10;;;9.73;;
3627;SDS011;1830;49.000;12.074;2023-04-10T13:20:32;12.43;;;11.13;;
3627;SDS011;1830;49.000;12.074;2023-04-10T13:23:00;12.27;;;10.80;;
3627;SDS011;1830;49.000;12.074;2023-04-10T13:25:28;9.90;;;8.90;;
3627;SDS011;1830;49.000;12.074;2023-04-10T13:27:58;12.90;;;9.67;;
3627;SDS011;1830;49.000;12.074;2023-04-10T13:30:26;9.97;;;8.97;;
3627;SDS011;1830;49.000;12.074;2023-04-10T13:32:52;11.30;;;9.23;;
3627;SDS011;1830;49.000;12.074;2023-04-10T13:35:19;9.67;;;8.67;;
3627;SDS011;1830;49.000;12.074;2023-04-10T13:37:46;9.47;;;8.47;;
3627;SDS011;1830;49.000;12.074;2023-04-10T13:40:17;9.70;;;8.70;;
3627;SDS011;1830;49.000;12.074;2023-04-10T13:42:44;11.63;;;9.80;;
3627;SDS011;1830;49.000;12.074;2023-04-10T13:45:12;9.83;;;8.50;;
3627;SDS011;1830;49.000;12.074;2023-04-10T13:47:39;9.90;;;8.77;;
3627;SDS011;1830;49.000;12.074;2023-04-10T13:50:06;10.43;;;9.00;;
3627;SDS011;1830;49.000;12.074;2023-04-10T13:52:33;10.00;;;8.70;;
3627;SDS011;1830;49.000;12.074;2023-04-10T13:55:00;11.50;;;10.30;;
3627;SDS011;1830;49.000;12.074;2023-04-10T13:57:27;11.20;;;8.80;;
3627;SDS011;1830;49.000;12.074;2023-04-10T13:59:53;10.50;;;9.37;;
3627;SDS011;1830;49.000;12.074;2023-04-10T14:02:22;12.23;;;9.53;;
3627;SDS011;1830;49.000;12.074;2023-04-10T14:04:48;10.23;;;9.13;;
3627;SDS011;1830;49.000;12.074;2023-04-10T14:07:15;10.73;;;9.27;;
3627;SDS011;1830;49.000;12.074;2023-04-10T14:09:43;10.13;;;9.13;;
3627;SDS011;1830;49.000;12.074;2023-04-10T14:12:11;13.53;;;9.60;;
3627;SDS011;1830;49.000;12.074;2023-04-10T14:14:40;9.60;;;8.60;;
3627;SDS011;1830;49.000;12.074;2023-04-10T14:17:07;9.63;;;8.63;;
3627;SDS011;1830;49.000;12.074;2023-04-10T14:19:35;9.37;;;8.47;;
3627;SDS011;1830;49.000;12.074;2023-04-10T14:22:02;10.23;;;9.17;;
3627;SDS011;1830;49.000;12.074;2023-04-10T14:24:29;11.00;;;9.50;;
3627;SDS011;1830;49.000;12.074;2023-04-10T14:26:56;8.77;;;7.87;;
3627;SDS011;1830;49.000;12.074;2023-04-10T14:29:25;9.00;;;8.10;;
3627;SDS011;1830;49.000;12.074;2023-04-10T14:31:52;9.77;;;7.60;;
3627;SDS011;1830;49.000;12.074;2023-04-10T14:34:18;9.00;;;8.10;;
3627;SDS011;1830;49.000;12.074;2023-04-10T14:36:46;8.40;;;7.60;;
3627;SDS011;1830;49.000;12.074;2023-04-10T14:39:13;7.20;;;6.60;;
3627;SDS011;1830;49.000;12.074;2023-04-10T14:41:40;8.00;;;7.30;;
3627;SDS011;1830;49.000;12.074;2023-04-10T14:44:07;7.77;;;7.07;;
3627;SDS011;1830;49.000;12.074;2023-04-10T14:46:34;8.43;;;7.40;;
3627;SDS011;1830;49.000;12.074;2023-04-10T14:49:01;7.40;;;6.57;;
3627;SDS011;1830;49.000;12.074;2023-04-10T14:51:28;7.30;;;6.60;;
3627;SDS011;1830;49.000;12.074;2023-04-10T14:53:57;6.87;;;6.27;;
3627;SDS011;1830;49.000;12.074;2023-04-10T14:56:24;6.90;;;6.30;;